Terminal Aerodrome Forecast
Issued by NWS Tulsa, OK

Current Version | Previous Version | Text Only | Print | Product List | Glossary On
Versions: 1 2 3 4 5 6 7 8 9 10 11 12 13 14 15 16
748
FTUS44 KTSA 010520
TAFTUL
TAF
KTUL 010520Z 0106/0206 19005KT P6SM BKN060
      TEMPO 0112/0116 BKN015
     FM011600 05005KT P6SM VCTS BKN030CB
      TEMPO 0120/0124 3SM TSRA BR BKN015CB
     FM020000 08003KT P6SM BKN100=

USA.gov is the U.S. government's official web portal to all federal, state and local government web resources and services.